Reno, NV

9:15 PM PDT en Septiembre 01, 2014 (GMT -0700)
MidTown | Change Station
CLOSE
Current Station
Estación meteorológica personal
Location: Reno, NV
Altura: 4491 ft
Estaciones meteorológicas cercanas

Alt 4491 ft 39.52 °N, 119.81 °W | Updated 5 minutes ago

Clear
Despejado
79.7 ° F
Sensación térmica 78 ° F
N
-
Viento Variable Viento desde Norte

Hoy
Alta -- | Baja -- ° F
--% Posibilidad de precipitaciones
Ayer
Alta -- | Baja -- ° F
Precip. -- pul
6:27 AM 7:30 PM
Creciente, 47% visible
Presión 29.84 pul
Visibilidad 10.0 Millas
Nubes Despejado
Índice de calor 78 ° F
Punto de rocío 36 ° F
Humedad 21%
Precipitaciones 0.00 pul
Espesor de la nieve No disponible.
UV 0 de una escala de 12
Polen 8.10 de una escala de 12
Calidad del aire No disponible.
Flu Activity No disponible.
METAR KRNO 020355Z 35005KT 10SM CLR 27/M01 A3000 RMK AO2 SLP103 T02671011

More Conditions Fewer Conditions

Presión 29.84 pul
Visibilidad 10.0 Millas
Nubes Despejado
Índice de calor 78 ° F
Punto de rocío 36 ° F
Humedad 21%
Precipitaciones 0.00 pul
Espesor de la nieve No disponible.
UV 0 de una escala de 12
Polen 8.10 de una escala de 12
Calidad del aire No disponible.
Flu Activity No disponible.
METAR KRNO 020355Z 35005KT 10SM CLR 27/M01 A3000 RMK AO2 SLP103 T02671011

More Conditions Fewer Conditions

10-Day Weather Forecast

Almanac

Astronomía

Sep. 01, 2014 Salida Puesta
Hora real 6:27 AM PDT 7:30 PM PDT
Crepúsculo civil 6:00 AM PDT 7:57 PM PDT
Crepúsculo náutico 5:27 AM PDT 8:30 PM PDT
Crepúsculo astronómico 4:52 AM PDT 9:04 PM PDT
Luna 1:16 PM PDT (9/1) 11:37 PM PDT (9/1)
Horas de luz 13h 57m
Horas de luz
13h 02m
Tomorrow will be 2m 30s shorter.
Creciente, 47% of the Moon is Illuminated
Sep 2
Creciente
Sep 2
Cuarto creciente
Sep 8
Luna llena
Sep 15
Cuarto menguante
Sep 24
Nueva

Extremos de hoy

Máximos del estado Bajos del estado

Community

WunderPhotos

Upload Photos

1,749,560 ¡fotos cargadas!

WunderBlogs® & News

Nearby

Grosos de nieve

Estación Profundido Altura
Big Creek Summit 0 in 8700 ft
Sheldon 0 in 5860 ft
Lewis Peak 0 in 7400 ft
Lamance Creek 0 in 6000 ft
Granite Peak 1 in 7800 ft

Actividad de terremotos

Ciudad Distance Mag. Tiempo y dato
No hay informes recientes de la actividad sísmica.
Magnitud mínima muestra es 2,5.

Temperaturas de aguas costeras

Lugar Temperatura
Sin partes meteorológicos de las estaciones

Estaciones meteorológicas cercanas